Rock Creek, North Carolina
Current Conditions -  °F | °C
As of 9:54 AM on Friday 19 Dec 2014 (Local Time) from KBUY Reporting Station
Clear Clear  
Wind Chill: 43°   Ceiling: Unl
Heat Index: 46°   Visibility: 10mi
Dew Point: 18°   Wind: 6mph
Humidity: 33%   Direction: 310°NW
Pressure: 30.18"   Gusts: NA
Location:  35.9026°N, 79.4229°W
Report Text: KBUY 191454Z AUTO 31005KT 10SM CLR 08/M08 A3018 RMK AO2 SLP220 T00781078 53016
Loading
Personal Weather Stations






























Interactive Weather Map New forecast layout! Learn more

10-Day Weather Forecast

Advertisements
Track Severe Weather on mobile